Crawford, Colorado
Current Conditions -  °F | °C
As of 12:53 PM on Thursday 29 Jan 2015 (Local Time) from KMTJ Reporting Station
Clear Clear  
Wind Chill: 47°   Ceiling: Unl
Heat Index: 47°   Visibility: 10mi
Dew Point: 29°   Wind: 0mph
Humidity: 50%   Direction: NA
Pressure: 30.34"   Gusts: NA
Location:  38.7°N, 107.61°W
Report Text: KMTJ 291953Z AUTO 00000KT 10SM CLR 08/M02 A3034 RMK AO2 SLP260 T00831017
Loading
Personal Weather Stations






























Interactive Weather Map New forecast layout! Learn more

10-Day Weather Forecast

Advertisements
Track Severe Weather on mobile